createdAt,value
2022-08-26T00:01:59.861Z,29.50
2022-08-26T00:04:50.425Z,29.51
2022-08-26T00:07:39.122Z,29.53
2022-08-26T00:10:27.871Z,29.51
2022-08-26T00:13:16.620Z,29.50
2022-08-26T00:16:09.513Z,29.52
2022-08-26T00:19:00.287Z,29.51
2022-08-26T00:21:51.264Z,29.52
2022-08-26T00:24:39.977Z,29.52
2022-08-26T00:27:36.494Z,29.52
2022-08-26T00:30:29.103Z,29.49
2022-08-26T00:33:20.213Z,29.49
2022-08-26T00:36:09.416Z,29.51
2022-08-26T00:39:10.637Z,29.48
2022-08-26T00:42:00.488Z,29.50
2022-08-26T00:44:49.037Z,29.49
2022-08-26T00:47:42.425Z,29.49
2022-08-26T00:50:35.017Z,29.50
2022-08-26T00:53:25.991Z,29.50
2022-08-26T00:56:20.651Z,29.51
2022-08-26T00:59:11.331Z,29.50
2022-08-26T01:02:00.258Z,29.49
2022-08-26T01:04:55.911Z,29.49
2022-08-26T01:07:44.982Z,29.48
2022-08-26T01:10:33.525Z,29.51
2022-08-26T01:13:24.001Z,29.52
2022-08-26T01:16:14.862Z,29.51
2022-08-26T01:19:09.655Z,29.51
2022-08-26T01:22:00.290Z,29.49
2022-08-26T01:24:50.435Z,29.48
2022-08-26T01:27:39.514Z,29.49
2022-08-26T01:30:29.087Z,29.47
2022-08-26T01:33:19.733Z,29.49
2022-08-26T01:36:09.053Z,29.50
2022-08-26T01:38:57.618Z,29.50
2022-08-26T01:41:48.141Z,29.49
2022-08-26T01:44:46.054Z,29.50
2022-08-26T01:47:36.501Z,29.50
2022-08-26T01:50:30.619Z,29.49
2022-08-26T01:53:21.452Z,29.49
2022-08-26T01:56:12.333Z,29.48
2022-08-26T01:59:05.578Z,29.50
2022-08-26T02:01:54.685Z,29.50
2022-08-26T02:04:48.921Z,29.50
2022-08-26T02:07:39.155Z,29.48
2022-08-26T02:10:28.132Z,29.49
2022-08-26T02:13:16.639Z,29.51
2022-08-26T02:16:07.882Z,29.49
2022-08-26T02:18:59.511Z,29.50
2022-08-26T02:21:51.247Z,29.50
2022-08-26T02:24:50.253Z,29.47
2022-08-26T02:27:40.409Z,29.48
2022-08-26T02:30:31.958Z,29.48
2022-08-26T02:33:21.799Z,29.48
2022-08-26T02:36:12.111Z,29.50
2022-08-26T02:39:02.049Z,29.48
2022-08-26T02:41:51.402Z,29.49
2022-08-26T02:44:40.015Z,29.49
2022-08-26T02:47:29.013Z,29.50
2022-08-26T02:50:19.382Z,29.49
2022-08-26T02:53:08.516Z,29.49
2022-08-26T02:55:57.156Z,29.48
2022-08-26T02:58:48.717Z,29.49
2022-08-26T03:01:37.987Z,29.48
2022-08-26T03:04:26.701Z,29.49
2022-08-26T03:07:16.672Z,29.49
2022-08-26T03:10:08.217Z,29.50
2022-08-26T03:12:56.906Z,29.50
2022-08-26T03:15:47.715Z,29.49
2022-08-26T03:18:36.710Z,29.51
2022-08-26T03:21:25.196Z,29.49
2022-08-26T03:24:17.522Z,29.48
2022-08-26T03:27:07.350Z,29.49
2022-08-26T03:30:22.327Z,29.48
2022-08-26T03:33:11.669Z,29.48
2022-08-26T03:36:00.593Z,29.49
2022-08-26T03:38:49.245Z,29.48
2022-08-26T03:41:39.237Z,29.47
2022-08-26T03:44:27.889Z,29.49
2022-08-26T03:47:16.447Z,29.48
2022-08-26T03:50:05.806Z,29.49
2022-08-26T03:52:55.723Z,29.48
2022-08-26T03:55:44.265Z,29.49
2022-08-26T03:58:37.267Z,29.46
2022-08-26T04:01:26.485Z,29.48
2022-08-26T04:04:15.537Z,29.48
2022-08-26T04:07:04.306Z,29.46
2022-08-26T04:09:56.241Z,29.48
2022-08-26T04:12:45.335Z,29.49
2022-08-26T04:15:35.209Z,29.49
2022-08-26T04:18:23.702Z,29.48
2022-08-26T04:21:12.651Z,29.46
2022-08-26T04:24:04.250Z,29.48
2022-08-26T04:26:53.193Z,29.47
2022-08-26T04:29:41.720Z,29.46
2022-08-26T04:32:31.630Z,29.48
2022-08-26T04:35:26.111Z,29.48
2022-08-26T04:38:16.192Z,29.47
2022-08-26T04:41:05.606Z,29.48
2022-08-26T04:44:04.811Z,29.47
2022-08-26T04:46:53.728Z,29.50
2022-08-26T04:49:45.372Z,29.48
2022-08-26T04:52:34.280Z,29.49
2022-08-26T04:55:25.216Z,29.48
2022-08-26T04:58:27.185Z,29.48
2022-08-26T05:01:15.882Z,29.48
2022-08-26T05:04:08.064Z,29.48
2022-08-26T05:07:02.659Z,29.51
2022-08-26T05:09:51.730Z,29.49
2022-08-26T05:12:40.227Z,29.47
2022-08-26T05:15:29.185Z,29.50
2022-08-26T05:18:20.718Z,29.51
2022-08-26T05:21:10.317Z,29.49
2022-08-26T05:24:00.984Z,29.49
2022-08-26T05:26:50.605Z,29.49
2022-08-26T05:29:39.621Z,29.49
2022-08-26T05:32:28.420Z,29.49
2022-08-26T05:35:18.958Z,29.49
2022-08-26T05:38:12.675Z,29.50
2022-08-26T05:41:03.151Z,29.49
2022-08-26T05:43:52.988Z,29.48
2022-08-26T05:46:44.650Z,29.49
2022-08-26T05:49:33.309Z,29.49
2022-08-26T05:52:24.527Z,29.51
2022-08-26T05:55:13.281Z,29.51
2022-08-26T05:58:03.270Z,29.51
2022-08-26T06:00:59.542Z,29.52
2022-08-26T06:03:52.692Z,29.52
2022-08-26T06:06:41.683Z,29.51
2022-08-26T06:09:31.760Z,29.48
2022-08-26T06:12:21.329Z,29.52
2022-08-26T06:15:12.720Z,29.54
2022-08-26T06:18:04.174Z,29.55
2022-08-26T06:20:57.773Z,29.54
2022-08-26T06:24:06.248Z,29.51
2022-08-26T06:26:57.080Z,29.51
2022-08-26T06:29:45.693Z,29.53
2022-08-26T06:32:36.261Z,29.54
2022-08-26T06:35:25.061Z,29.56
2022-08-26T06:38:13.915Z,29.54
2022-08-26T06:41:02.507Z,29.57
2022-08-26T06:43:51.686Z,29.57
2022-08-26T06:46:40.316Z,29.58
2022-08-26T06:49:30.270Z,29.58
2022-08-26T06:52:22.947Z,29.60
2022-08-26T06:55:13.500Z,29.60
2022-08-26T06:58:02.098Z,29.62
2022-08-26T07:00:52.872Z,29.62
2022-08-26T07:03:41.347Z,29.62
2022-08-26T07:06:32.618Z,29.66
2022-08-26T07:09:22.666Z,29.64
2022-08-26T07:12:11.144Z,29.65
2022-08-26T07:14:59.684Z,29.66
2022-08-26T07:17:48.411Z,29.66
2022-08-26T07:20:41.114Z,29.67
2022-08-26T07:23:33.513Z,29.67
2022-08-26T07:26:23.713Z,29.70
2022-08-26T07:29:14.794Z,29.68
2022-08-26T07:32:03.745Z,29.69
2022-08-26T07:34:52.619Z,29.72
2022-08-26T07:37:41.197Z,29.72
2022-08-26T07:40:31.169Z,29.73
2022-08-26T07:43:19.908Z,29.74
2022-08-26T07:46:13.259Z,29.76
2022-08-26T07:49:04.524Z,29.77
2022-08-26T07:51:53.343Z,29.77
2022-08-26T07:54:41.861Z,29.76
2022-08-26T07:57:31.885Z,29.80
2022-08-26T08:00:20.808Z,29.78
2022-08-26T08:03:09.558Z,29.79
2022-08-26T08:05:58.983Z,29.82
2022-08-26T08:08:47.674Z,29.82
2022-08-26T08:11:39.406Z,29.83
2022-08-26T08:14:29.651Z,29.84
2022-08-26T08:17:19.341Z,29.86
2022-08-26T08:20:09.279Z,29.86
2022-08-26T08:23:00.177Z,29.85
2022-08-26T08:25:49.236Z,29.85
2022-08-26T08:28:38.206Z,29.86
2022-08-26T08:31:55.849Z,29.87
2022-08-26T08:37:32.677Z,29.89
2022-08-26T08:40:25.867Z,29.91
2022-08-26T08:43:16.319Z,29.93
2022-08-26T08:46:08.855Z,29.93
2022-08-26T08:49:00.707Z,29.94
2022-08-26T08:51:54.071Z,29.95
2022-08-26T08:54:44.201Z,29.96
2022-08-26T08:57:40.428Z,29.98
2022-08-26T09:00:30.271Z,29.99
2022-08-26T09:03:36.037Z,30.00
2022-08-26T09:06:27.609Z,29.99
2022-08-26T09:09:21.747Z,30.00
2022-08-26T09:12:14.958Z,30.02
2022-08-26T09:15:08.278Z,30.02
2022-08-26T09:18:02.034Z,30.05
2022-08-26T09:20:58.282Z,30.04
2022-08-26T09:23:49.774Z,30.06
2022-08-26T09:26:48.013Z,30.05
2022-08-26T09:29:45.572Z,30.07
2022-08-26T09:32:39.026Z,30.09
2022-08-26T09:35:31.608Z,30.08
2022-08-26T09:38:26.858Z,30.09
2022-08-26T09:41:27.387Z,30.06
2022-08-26T09:44:18.298Z,30.06
2022-08-26T09:47:08.899Z,30.05
2022-08-26T09:50:04.144Z,30.06
2022-08-26T09:53:09.949Z,30.03
2022-08-26T09:56:17.461Z,30.05
2022-08-26T09:59:11.966Z,30.03
2022-08-26T10:02:36.689Z,30.03
2022-08-26T10:05:31.896Z,30.02
2022-08-26T10:08:26.167Z,30.03
2022-08-26T10:11:20.538Z,30.03
2022-08-26T10:14:16.150Z,30.01
2022-08-26T10:17:07.782Z,30.02
2022-08-26T10:19:59.422Z,30.00
2022-08-26T10:22:52.676Z,30.02
2022-08-26T10:25:46.724Z,30.01
2022-08-26T10:28:39.663Z,30.00
2022-08-26T10:31:40.338Z,30.02
2022-08-26T10:34:29.481Z,30.01
2022-08-26T10:37:21.438Z,30.01
2022-08-26T10:40:13.586Z,30.00
2022-08-26T10:43:11.290Z,30.00
2022-08-26T10:46:03.028Z,30.02
2022-08-26T10:48:57.282Z,30.01
2022-08-26T10:51:59.208Z,30.02
2022-08-26T10:54:53.793Z,30.01
2022-08-26T10:57:48.241Z,30.04
2022-08-26T11:00:58.682Z,30.03
2022-08-26T11:03:58.202Z,30.06
2022-08-26T11:06:46.877Z,30.06
2022-08-26T11:09:47.263Z,30.09
2022-08-26T11:12:58.922Z,30.06
2022-08-26T11:16:01.156Z,30.07
2022-08-26T11:18:54.629Z,30.10
2022-08-26T11:21:50.854Z,30.10
2022-08-26T11:25:12.059Z,30.12
2022-08-26T11:28:01.341Z,30.12
2022-08-26T11:30:56.964Z,30.14
2022-08-26T11:33:49.435Z,30.13
2022-08-26T11:36:56.849Z,30.14
2022-08-26T11:39:54.810Z,30.17
2022-08-26T11:42:45.501Z,30.17
2022-08-26T11:45:37.533Z,30.18
2022-08-26T11:48:32.528Z,30.19
2022-08-26T11:51:24.353Z,30.20
2022-08-26T11:54:16.539Z,30.22
2022-08-26T11:57:11.678Z,30.24
2022-08-26T12:00:01.320Z,30.25
2022-08-26T12:02:50.281Z,30.26
2022-08-26T12:05:45.070Z,30.27
2022-08-26T12:08:34.989Z,30.29
2022-08-26T12:11:27.596Z,30.28
2022-08-26T12:14:19.981Z,30.29
2022-08-26T12:17:13.482Z,30.33
2022-08-26T12:20:02.000Z,30.33
2022-08-26T12:22:50.581Z,30.33
2022-08-26T12:25:40.251Z,30.36
2022-08-26T12:28:30.252Z,30.37
2022-08-26T12:31:28.665Z,30.37
2022-08-26T12:34:18.560Z,30.38
2022-08-26T12:37:07.715Z,30.39
2022-08-26T12:39:56.427Z,30.43
2022-08-26T12:42:45.079Z,30.43
2022-08-26T12:45:37.750Z,30.45
2022-08-26T12:48:28.083Z,30.44
2022-08-26T12:51:24.832Z,30.46
2022-08-26T12:54:16.034Z,30.45
2022-08-26T12:57:11.326Z,30.46
2022-08-26T13:00:40.223Z,30.48
2022-08-26T13:03:43.827Z,30.50
2022-08-26T13:06:35.028Z,30.52
2022-08-26T13:09:32.124Z,30.53
2022-08-26T13:12:31.893Z,30.53
2022-08-26T13:15:20.608Z,30.56
2022-08-26T13:18:09.175Z,30.56
2022-08-26T13:20:59.084Z,30.55
2022-08-26T13:23:47.885Z,30.57
2022-08-26T13:26:36.675Z,30.57
2022-08-26T13:29:25.430Z,30.60
2022-08-26T13:32:14.240Z,30.61
2022-08-26T13:35:05.841Z,30.59
2022-08-26T13:37:55.936Z,30.58
2022-08-26T13:40:44.771Z,30.58
2022-08-26T13:43:33.919Z,30.57
2022-08-26T13:46:22.483Z,30.57
2022-08-26T13:49:11.477Z,30.60
2022-08-26T13:52:00.032Z,30.60
2022-08-26T13:54:49.963Z,30.58
2022-08-26T13:57:39.305Z,30.58
2022-08-26T14:00:27.892Z,30.55
2022-08-26T14:03:16.493Z,30.55
2022-08-26T14:06:05.557Z,30.55
2022-08-26T14:08:54.045Z,30.54
2022-08-26T14:11:53.866Z,30.55
2022-08-26T14:14:43.573Z,30.53
2022-08-26T14:17:32.577Z,30.53
2022-08-26T14:20:24.475Z,30.53
2022-08-26T14:23:14.212Z,30.51
2022-08-26T14:26:08.030Z,30.51
2022-08-26T14:28:58.880Z,30.51
2022-08-26T14:31:48.396Z,30.51
2022-08-26T14:34:36.934Z,30.52
2022-08-26T14:37:25.982Z,30.51
2022-08-26T14:40:15.091Z,30.53
2022-08-26T14:43:03.864Z,30.55
2022-08-26T14:45:53.902Z,30.58
2022-08-26T14:48:42.498Z,30.61
2022-08-26T14:51:31.419Z,30.63
2022-08-26T14:54:20.697Z,30.70
2022-08-26T14:57:11.244Z,30.73
2022-08-26T14:59:59.923Z,30.72
2022-08-26T15:02:50.042Z,30.76
2022-08-26T15:05:39.855Z,30.77
2022-08-26T15:08:28.462Z,30.83
2022-08-26T15:11:18.332Z,30.82
2022-08-26T15:14:07.029Z,30.87
2022-08-26T15:16:57.156Z,30.90
2022-08-26T15:19:47.434Z,30.93
2022-08-26T15:22:36.111Z,30.92
2022-08-26T15:25:24.836Z,30.94
2022-08-26T15:28:13.736Z,30.95
2022-08-26T15:31:02.367Z,30.95
2022-08-26T15:33:52.445Z,30.94
2022-08-26T15:36:43.629Z,30.95
2022-08-26T15:39:32.481Z,30.96
2022-08-26T15:42:21.937Z,30.97
2022-08-26T15:45:11.242Z,30.98
2022-08-26T15:48:01.126Z,30.95
2022-08-26T15:51:02.031Z,30.91
2022-08-26T15:53:52.918Z,30.93
2022-08-26T15:56:41.476Z,30.89
2022-08-26T15:59:32.225Z,30.90
2022-08-26T16:02:21.457Z,30.86
2022-08-26T16:05:11.304Z,30.84
2022-08-26T16:08:00.074Z,30.83
2022-08-26T16:10:51.291Z,30.80
2022-08-26T16:13:40.275Z,30.83
2022-08-26T16:16:29.140Z,30.80
2022-08-26T16:19:18.057Z,30.82
2022-08-26T16:22:08.078Z,30.79
2022-08-26T16:24:58.320Z,30.78
2022-08-26T16:27:48.428Z,30.78
2022-08-26T16:30:36.993Z,30.77
2022-08-26T16:33:29.505Z,30.75
2022-08-26T16:36:18.398Z,30.75
2022-08-26T16:39:08.226Z,30.75
2022-08-26T16:41:58.722Z,30.72
2022-08-26T16:44:48.763Z,30.73
2022-08-26T16:47:37.627Z,30.75
2022-08-26T16:50:26.399Z,30.72
2022-08-26T16:56:09.022Z,30.69
2022-08-26T16:58:57.946Z,30.67
2022-08-26T17:01:47.933Z,30.64
2022-08-26T17:04:37.341Z,30.62
2022-08-26T17:07:26.507Z,30.61
2022-08-26T17:10:15.427Z,30.61
2022-08-26T17:13:03.951Z,30.59
2022-08-26T17:15:58.329Z,30.57
2022-08-26T17:18:49.932Z,30.57
2022-08-26T17:21:39.649Z,30.57
2022-08-26T17:24:28.183Z,30.57
2022-08-26T17:27:16.688Z,30.56
2022-08-26T17:30:06.914Z,30.56
2022-08-26T17:32:55.831Z,30.56
2022-08-26T17:35:46.605Z,30.54
2022-08-26T17:38:35.618Z,30.54
2022-08-26T17:41:24.225Z,30.53
2022-08-26T17:44:12.775Z,30.52
2022-08-26T17:47:01.279Z,30.50
2022-08-26T17:49:49.871Z,30.48
2022-08-26T17:52:40.016Z,30.47
2022-08-26T17:55:28.921Z,30.47
2022-08-26T17:58:18.932Z,30.46
2022-08-26T18:01:07.979Z,30.46
2022-08-26T18:04:00.343Z,30.47
2022-08-26T18:06:49.565Z,30.44
2022-08-26T18:09:39.427Z,30.44
2022-08-26T18:12:28.144Z,30.42
2022-08-26T18:15:18.761Z,30.43
2022-08-26T18:18:07.616Z,30.43
2022-08-26T18:21:01.907Z,30.42
2022-08-26T18:23:51.720Z,30.41
2022-08-26T18:26:47.962Z,30.42
2022-08-26T18:29:36.537Z,30.40
2022-08-26T18:32:33.914Z,30.39
2022-08-26T18:35:22.393Z,30.39
2022-08-26T18:38:13.732Z,30.40
2022-08-26T18:41:05.610Z,30.36
2022-08-26T18:43:55.937Z,30.39
2022-08-26T18:46:45.863Z,30.38
2022-08-26T18:49:34.354Z,30.36
2022-08-26T18:52:23.093Z,30.36
2022-08-26T18:55:12.653Z,30.36
2022-08-26T18:58:01.227Z,30.35
2022-08-26T19:00:51.654Z,30.33
2022-08-26T19:03:40.275Z,30.32
2022-08-26T19:06:32.788Z,30.31
2022-08-26T19:09:21.929Z,30.30
2022-08-26T19:12:11.651Z,30.31
2022-08-26T19:15:02.421Z,30.33
2022-08-26T19:17:52.277Z,30.33
2022-08-26T19:20:46.035Z,30.31
2022-08-26T19:23:35.509Z,30.32
2022-08-26T19:26:25.011Z,30.30
2022-08-26T19:29:13.804Z,30.29
2022-08-26T19:32:02.939Z,30.30
2022-08-26T19:34:53.329Z,30.30
2022-08-26T19:37:41.813Z,30.29
2022-08-26T19:40:31.022Z,30.30
2022-08-26T19:43:19.569Z,30.30
2022-08-26T19:46:12.832Z,30.31
2022-08-26T19:49:01.448Z,30.30
2022-08-26T19:51:51.445Z,30.31
2022-08-26T19:54:40.374Z,30.30
2022-08-26T19:57:29.031Z,30.30
2022-08-26T20:00:20.651Z,30.29
2022-08-26T20:03:13.075Z,30.29
2022-08-26T20:06:05.999Z,30.32
2022-08-26T20:08:56.476Z,30.31
2022-08-26T20:11:45.417Z,30.29
2022-08-26T20:14:35.939Z,30.30
2022-08-26T20:17:24.466Z,30.31
2022-08-26T20:20:33.131Z,30.29
2022-08-26T20:23:22.102Z,30.28
2022-08-26T20:26:12.091Z,30.26
2022-08-26T20:29:01.325Z,30.28
2022-08-26T20:31:50.601Z,30.28
2022-08-26T20:34:39.930Z,30.29
2022-08-26T20:37:29.251Z,30.29
2022-08-26T20:40:17.883Z,30.29
2022-08-26T20:43:07.892Z,30.28
2022-08-26T20:45:56.431Z,30.26
2022-08-26T20:48:44.998Z,30.26
2022-08-26T20:51:33.633Z,30.28
2022-08-26T20:54:28.141Z,30.28
2022-08-26T20:57:17.043Z,30.26
2022-08-26T21:00:08.346Z,30.24
2022-08-26T21:02:58.223Z,30.25
2022-08-26T21:05:46.784Z,30.22
2022-08-26T21:08:37.053Z,30.22
2022-08-26T21:11:29.323Z,30.25
2022-08-26T21:14:19.046Z,30.25
2022-08-26T21:17:09.001Z,30.25
2022-08-26T21:19:57.609Z,30.25
2022-08-26T21:22:46.249Z,30.27
2022-08-26T21:25:34.818Z,30.26
2022-08-26T21:28:23.393Z,30.25
2022-08-26T21:31:13.831Z,30.25
2022-08-26T21:34:03.859Z,30.24
2022-08-26T21:36:52.513Z,30.27
2022-08-26T21:39:41.072Z,30.26
2022-08-26T21:42:33.028Z,30.22
2022-08-26T21:45:21.844Z,30.23
2022-08-26T21:48:10.470Z,30.23
2022-08-26T21:51:00.522Z,30.23
2022-08-26T21:53:50.070Z,30.23
2022-08-26T21:56:40.846Z,30.21
2022-08-26T21:59:29.562Z,30.21
2022-08-26T22:02:18.143Z,30.23
2022-08-26T22:05:07.325Z,30.23
2022-08-26T22:07:57.752Z,30.21
2022-08-26T22:10:51.647Z,30.21
2022-08-26T22:13:41.370Z,30.21
2022-08-26T22:16:29.958Z,30.25
2022-08-26T22:19:19.991Z,30.24
2022-08-26T22:22:08.606Z,30.22
2022-08-26T22:24:58.576Z,30.22
2022-08-26T22:27:47.175Z,30.21
2022-08-26T22:30:36.389Z,30.21
2022-08-26T22:33:25.683Z,30.21
2022-08-26T22:36:19.126Z,30.21
2022-08-26T22:39:07.736Z,30.22
2022-08-26T22:42:00.446Z,30.20
2022-08-26T22:44:49.075Z,30.20
2022-08-26T22:47:38.102Z,30.20
2022-08-26T22:50:26.931Z,30.20
2022-08-26T22:53:16.698Z,30.20
2022-08-26T22:56:05.515Z,30.20
2022-08-26T22:58:55.465Z,30.18
2022-08-26T23:01:46.829Z,30.21
2022-08-26T23:04:35.366Z,30.22
2022-08-26T23:07:24.394Z,30.20
2022-08-26T23:10:13.242Z,30.22
2022-08-26T23:13:04.207Z,30.20
2022-08-26T23:16:02.728Z,30.19
2022-08-26T23:18:51.446Z,30.21
2022-08-26T23:21:40.161Z,30.20
2022-08-26T23:24:28.694Z,30.19
2022-08-26T23:27:18.433Z,30.20
2022-08-26T23:30:08.867Z,30.20
2022-08-26T23:32:58.971Z,30.18
2022-08-26T23:35:46.554Z,30.19
2022-08-26T23:38:35.364Z,30.18
2022-08-26T23:41:25.925Z,30.19
2022-08-26T23:44:14.518Z,30.18
2022-08-26T23:47:03.414Z,30.21
2022-08-26T23:49:53.439Z,30.20
2022-08-26T23:52:59.514Z,30.20
2022-08-26T23:55:49.478Z,30.21
2022-08-26T23:58:38.013Z,30.22
